Time;durP1;ratioP1;P1;durP2;ratioP2;P2;SDS_P1;SDS_P2;PMS_P1;PMS_P2;Temp;Humidity;BMP_temperature;BMP_pressure;BME280_temperature;BME280_humidity;BME280_pressure;Samples;Min_cycle;Max_cycle;Signal;HPM_P1;HPM_P2
2023/01/20 00:06:29;;;;;;;;;;;;;;;;;;;;;
2023/01/20 00:09:21;;;;;;;45.60;26.50;;;;;;;-0.28;89.57;98133.69;86836;1296;25530;-75
2023/01/20 00:12:22;;;;;;;54.10;28.40;;;;;;;-0.28;89.58;98134.58;86705;1307;97985;-74
2023/01/20 00:15:06;;;;;;;49.10;26.20;;;;;;;-0.31;89.53;98139.61;86845;1307;22568;-75
2023/01/20 00:18:07;;;;;;;48.20;24.80;;;;;;;-0.32;89.48;98140.16;86620;1308;99053;-75
2023/01/20 00:21:15;;;;;;;50.90;27.10;;;;;;;-0.35;89.58;98134.16;86769;1309;23027;-75
2023/01/20 00:24:10;;;;;;;45.50;24.90;;;;;;;-0.37;89.52;98134.35;86091;1305;98849;-73
2023/01/20 00:27:09;;;;;;;;;;;;;;;;;;;;;
2023/01/20 00:30:14;;;;;;;43.60;23.50;;;;;;;-0.41;89.54;98137.21;86114;1317;99872;-75
2023/01/20 00:33:18;;;;;;;52.00;24.60;;;;;;;-0.43;89.56;98149.14;86776;1304;26581;-74
2023/01/20 00:36:19;;;;;;;49.50;25.20;;;;;;;-0.47;89.54;98159.08;86533;1310;99167;-75
2023/01/20 00:39:18;;;;;;;;;;;;;;;;;;;;;
2023/01/20 00:42:19;;;;;;;50.00;26.60;;;;;;;-0.51;89.40;98162.58;86485;1314;99407;-75
2023/01/20 00:45:10;;;;;;;65.60;27.50;;;;;;;-0.53;89.54;98166.05;87054;1296;22552;-75
2023/01/20 00:48:12;;;;;;;55.60;27.50;;;;;;;-0.57;89.63;98157.84;86920;1306;99123;-75
2023/01/20 00:51:01;;;;;;;52.00;30.20;;;;;;;-0.60;89.48;98152.20;86990;1300;22708;-75
2023/01/20 00:54:04;;;;;;;60.80;28.70;;;;;;;-0.62;89.52;98149.65;86473;1312;99669;-75
2023/01/20 00:57:05;;;;;;;63.00;28.20;;;;;;;-0.66;89.27;98142.46;86765;1303;25452;-74
2023/01/20 00:59:50;;;;;;;64.10;29.10;;;;;;;-0.70;89.27;98146.33;86574;1312;99186;-76
2023/01/20 01:03:09;;;;;;;63.70;29.00;;;;;;;-0.71;89.50;98165.31;87755;1300;22728;-76
2023/01/20 01:06:09;;;;;;;50.90;29.50;;;;;;;-0.75;89.48;98181.41;87297;1296;100636;-75
2023/01/20 01:09:10;;;;;;;51.40;26.90;;;;;;;-0.77;89.54;98186.27;87458;1303;23953;-76
2023/01/20 01:12:12;;;;;;;59.00;28.70;;;;;;;-0.81;89.35;98199.11;87342;1298;99896;-77
2023/01/20 01:15:15;;;;;;;65.30;30.20;;;;;;;-0.85;89.21;98200.89;87897;1297;22590;-76
2023/01/20 01:18:16;;;;;;;57.80;28.60;;;;;;;-0.88;89.48;98193.50;87418;1301;98670;-75
2023/01/20 01:21:08;;;;;;;66.90;28.90;;;;;;;-0.92;89.21;98173.23;87778;1298;22864;-75
2023/01/20 01:24:11;;;;;;;52.00;27.30;;;;;;;-1.00;89.36;98172.48;88438;1285;99508;-75
2023/01/20 01:27:20;;;;;;;62.50;29.30;;;;;;;-1.06;89.13;98178.27;88399;1292;22619;-77
2023/01/20 01:30:13;;;;;;;;;;;;;;;;;;;;;
2023/01/20 01:32:42;;;;;;;;;;;;;;;;;;;;;
2023/01/20 01:38:48;;;;;;;61.70;29.90;;;;;;;-1.20;89.05;98174.83;88217;1279;22720;-75
2023/01/20 01:41:32;;;;;;;61.90;30.90;;;;;;;-1.23;89.25;98173.66;88092;1282;99510;-76
2023/01/20 01:44:32;;;;;;;;;;;;;;;;;;;;;
2023/01/20 01:50:15;;;;;;;68.60;30.50;;;;;;;-1.22;89.32;98161.93;88420;1291;27933;-75
2023/01/20 01:53:19;;;;;;;66.10;31.80;;;;;;;-1.22;89.31;98175.38;88313;1277;98119;-73
2023/01/20 01:56:12;;;;;;;57.30;29.60;;;;;;;-1.24;89.30;98185.05;88901;1289;24353;-75
2023/01/20 01:59:07;;;;;;;68.10;29.40;;;;;;;-1.27;89.32;98188.02;88702;1289;23048;-75
2023/01/20 02:02:11;;;;;;;60.20;28.30;;;;;;;-1.31;89.16;98181.19;88530;1290;22553;-75
2023/01/20 02:05:14;;;;;;;68.80;31.40;;;;;;;-1.32;89.08;98198.77;88970;1291;22604;-74
2023/01/20 02:08:15;;;;;;;67.40;29.70;;;;;;;-1.31;89.28;98187.55;88357;1291;23453;-75
2023/01/20 02:11:23;;;;;;;57.70;28.70;;;;;;;-1.28;89.23;98194.75;88503;1293;22508;-74
2023/01/20 02:14:03;;;;;;;;;;;;;;;;;;;;;
2023/01/20 02:17:22;;;;;;;63.80;30.10;;;;;;;-1.23;89.30;98223.64;88582;1292;22588;-74
2023/01/20 02:20:18;;;;;;;63.80;30.80;;;;;;;-1.25;89.30;98212.81;88838;1290;22594;-75
2023/01/20 02:23:35;;;;;;;59.50;30.00;;;;;;;-1.28;89.33;98204.25;88670;1274;24365;-75
2023/01/20 02:26:40;;;;;;;65.60;30.60;;;;;;;-1.12;89.34;98220.75;88644;1289;22658;-75
2023/01/20 02:33:50;;;;;;;68.70;30.70;;;;;;;-1.06;89.44;98211.88;88469;1292;22857;-75
2023/01/20 02:40:24;;;;;;;61.30;32.80;;;;;;;-1.01;89.32;98205.95;87021;1307;543555;-75
2023/01/20 02:42:42;;;;;;;59.60;31.50;;;;;;;-1.05;89.41;98208.42;89051;1271;97559;-75
2023/01/20 02:45:42;;;;;;;59.80;32.20;;;;;;;-1.05;89.38;98211.17;89273;1281;22537;-75
2023/01/20 02:48:45;;;;;;;;;;;;;;;;;;;;;
2023/01/20 02:51:42;;;;;;;;;;;;;;;;;;;;;
2023/01/20 02:54:36;;;;;;;;;;;;;;;;;;;;;
2023/01/20 02:57:44;;;;;;;65.10;31.60;;;;;;;-1.08;89.37;98228.44;88791;1289;24385;-75
2023/01/20 03:00:52;;;;;;;61.50;31.10;;;;;;;-1.08;89.28;98237.77;88757;1286;98438;-75
2023/01/20 03:03:59;;;;;;;57.90;28.90;;;;;;;-1.06;89.30;98236.02;89115;1277;22651;-75
2023/01/20 03:06:43;;;;;;;61.80;29.30;;;;;;;-1.06;89.22;98229.63;89437;1278;97308;-74
2023/01/20 03:09:27;;;;;;;;;;;;;;;;;;;;;
2023/01/20 03:12:30;;;;;;;54.60;27.90;;;;;;;-1.06;89.22;98232.91;89112;1289;97650;-76
2023/01/20 03:15:14;;;;;;;;;;;;;;;;;;;;;
2023/01/20 03:18:20;;;;;;;52.40;28.40;;;;;;;-1.09;89.18;98234.33;88751;1281;97702;-77
2023/01/20 03:20:27;;;;;;;54.70;28.10;;;;;;;-1.09;89.18;98232.77;89130;1283;22578;-75
2023/01/20 03:23:10;;;;;;;58.80;28.80;;;;;;;-1.17;89.15;98221.15;89049;1284;25413;-76
2023/01/20 03:25:44;;;;;;;;;;;;;;;;;;;;;
2023/01/20 03:28:13;;;;;;;64.40;29.90;;;;;;;-1.09;89.19;98239.16;89509;1275;22604;-76
2023/01/20 03:30:38;;;;;;;;;;;;;;;;;;;;;
2023/01/20 03:33:42;;;;;;;67.90;31.90;;;;;;;-1.08;89.28;98235.17;89659;1273;22591;-75
2023/01/20 03:36:47;;;;;;;67.90;32.20;;;;;;;-1.06;89.23;98248.95;89601;1272;98634;-76
2023/01/20 03:39:38;;;;;;;67.00;32.70;;;;;;;-1.03;89.34;98247.70;89932;1275;22946;-74
2023/01/20 03:42:38;;;;;;;62.60;30.70;;;;;;;-1.01;89.29;98254.39;89486;1271;99111;-75
2023/01/20 03:45:06;;;;;;;63.40;30.30;;;;;;;-1.00;89.24;98254.73;89411;1279;22671;-75
2023/01/20 03:48:14;;;;;;;62.50;30.50;;;;;;;-1.00;89.26;98257.83;89319;1273;98846;-76
2023/01/20 03:51:20;;;;;;;61.20;29.70;;;;;;;-0.99;89.33;98255.23;89495;1272;22525;-75
2023/01/20 03:54:19;;;;;;;54.90;29.40;;;;;;;-1.01;89.21;98255.77;89486;1279;100840;-74
2023/01/20 04:00:23;;;;;;;49.10;26.50;;;;;;;-1.04;89.29;98245.98;89628;1278;97729;-75
2023/01/20 04:03:32;;;;;;;59.30;27.40;;;;;;;-1.04;89.18;98246.51;89480;1279;22547;-76
2023/01/20 04:06:38;;;;;;;60.30;26.90;;;;;;;-1.04;89.25;98246.33;89183;1277;98571;-75
2023/01/20 04:10:05;;;;;;;56.80;24.80;;;;;;;-1.05;89.23;98251.67;89461;1275;22553;-75
2023/01/20 04:12:50;;;;;;;53.60;25.60;;;;;;;-1.07;89.24;98251.89;89290;1273;99053;-75
2023/01/20 04:15:49;;;;;;;;;;;;;;;;;;;;;
2023/01/20 04:18:55;;;;;;;48.20;22.90;;;;;;;-1.10;89.11;98262.45;89086;1282;99725;-75
2023/01/20 04:22:04;;;;;;;48.60;23.10;;;;;;;-1.12;89.18;98267.30;89220;1267;22594;-76
2023/01/20 04:25:02;;;;;;;;;;;;;;;;;;;;;
2023/01/20 04:31:15;;;;;;;43.40;22.00;;;;;;;-1.14;89.10;98278.02;89077;1284;99404;-75
2023/01/20 04:34:08;;;;;;;;;;;;;;;;;;;;;
2023/01/20 04:37:55;;;;;;;48.80;24.20;;;;;;;-1.15;89.00;98293.02;86977;1310;557232;-76
2023/01/20 04:40:57;;;;;;;42.50;21.80;;;;;;;-1.19;89.09;98294.11;89256;1284;22569;-77
2023/01/20 04:44:00;;;;;;;45.90;22.80;;;;;;;-1.20;89.04;98293.43;89369;1278;107723;-76
2023/01/20 04:47:26;;;;;;;43.10;21.20;;;;;;;-1.16;89.13;98305.45;89408;1281;24267;-74
2023/01/20 04:50:27;;;;;;;39.90;21.30;;;;;;;-1.20;89.07;98312.91;89189;1281;112308;-75
2023/01/20 04:53:12;;;;;;;39.00;21.20;;;;;;;-1.20;88.94;98320.13;85294;1281;22645;-75
2023/01/20 04:56:02;;;;;;;;;;;;;;;;;;;;;
2023/01/20 04:59:08;;;;;;;42.50;20.70;;;;;;;-1.16;89.20;98323.71;89200;1287;22594;-75
2023/01/20 05:02:11;;;;;;;41.10;20.50;;;;;;;-1.16;89.06;98328.20;89034;1281;98484;-75
2023/01/20 05:05:14;;;;;;;39.50;20.90;;;;;;;-1.15;89.13;98328.70;89168;1274;24297;-75
2023/01/20 05:07:56;;;;;;;37.50;20.20;;;;;;;-1.13;89.18;98330.75;89096;1277;24405;-75
2023/01/20 05:10:59;;;;;;;38.70;20.40;;;;;;;-1.11;89.06;98336.59;89179;1278;22542;-75
2023/01/20 05:13:25;;;;;;;;;;;;;;;;;;;;;
2023/01/20 05:16:54;;;;;;;40.30;20.70;;;;;;;-1.09;89.14;98338.80;89108;1284;22672;-75
2023/01/20 05:19:35;;;;;;;37.20;20.00;;;;;;;-1.09;89.08;98341.05;88326;1286;97727;-75
2023/01/20 05:22:35;;;;;;;40.40;21.30;;;;;;;-1.14;88.95;98334.20;88856;1283;22630;-75
2023/01/20 05:25:22;;;;;;;41.00;20.50;;;;;;;-1.16;89.04;98337.34;88342;1292;99947;-75
2023/01/20 05:28:25;;;;;;;39.20;20.90;;;;;;;-1.14;88.96;98341.80;88244;1295;23417;-75
2023/01/20 05:31:23;;;;;;;51.90;21.70;;;;;;;-1.14;88.88;98343.52;87576;1294;98382;-74
2023/01/20 05:34:13;;;;;;;37.20;22.00;;;;;;;-1.14;88.86;98343.35;87706;1301;22622;-74
2023/01/20 05:37:14;;;;;;;;;;;;;;;;;;;;;
2023/01/20 05:40:41;;;;;;;36.70;20.60;;;;;;;-1.13;89.01;98347.13;87800;1295;26170;-75
2023/01/20 05:43:18;;;;;;;40.00;20.20;;;;;;;-1.13;89.09;98352.64;87680;1301;98793;-75
2023/01/20 05:49:07;;;;;;;39.10;21.20;;;;;;;-1.11;89.10;98355.73;87235;1304;97611;-76
2023/01/20 05:51:52;;;;;;;47.30;22.10;;;;;;;-1.12;88.97;98356.77;87483;1304;22533;-74
2023/01/20 05:54:56;;;;;;;36.30;20.90;;;;;;;-1.10;88.98;98358.83;87390;1304;97887;-75
2023/01/20 05:57:37;;;;;;;38.50;20.00;;;;;;;-1.09;89.17;98361.05;87455;1306;24258;-76
2023/01/20 06:07:14;;;;;;;37.10;19.80;;;;;;;-1.05;89.17;98359.79;88318;1295;97726;-75
2023/01/20 06:09:53;;;;;;;49.00;22.80;;;;;;;-1.01;89.28;98367.33;88583;1295;25370;-75
2023/01/20 06:15:56;;;;;;;90.20;22.80;;;;;;;-0.96;89.23;98373.48;87792;1293;22868;-75
2023/01/20 06:18:58;;;;;;;47.70;22.80;;;;;;;-0.93;89.29;98378.98;86930;1309;98394;-75
2023/01/20 06:31:15;;;;;;;46.50;20.90;;;;;;;-0.87;89.26;98389.60;86506;1314;98214;-76
2023/01/20 06:34:17;;;;;;;47.10;24.10;;;;;;;-0.86;89.22;98393.54;86773;1309;22618;-75
2023/01/20 06:37:19;;;;;;;58.40;28.70;;;;;;;-0.83;89.25;98394.73;87066;1312;97719;-75
2023/01/20 06:45:30;;;;;;;53.00;26.20;;;;;;;-0.83;89.19;98403.52;90391;1273;23418;-75
2023/01/20 06:47:17;;;;;;;;;;;;;;;-0.80;89.12;98403.66;89597;1280;24208;-75
2023/01/20 06:50:21;;;;;;;68.60;23.10;;;;;;;-0.79;89.18;98400.20;89610;1267;23147;-76
2023/01/20 06:56:15;;;;;;;;;;;;;;;;;;;;;
2023/01/20 06:59:25;;;;;;;51.50;21.30;;;;;;;-0.73;89.27;98404.27;90086;1272;23008;-74
2023/01/20 07:04:54;;;;;;;;;;;;;;;;;;;;;
2023/01/20 07:07:58;;;;;;;67.10;23.60;;;;;;;-0.73;89.08;98412.71;89818;1270;98694;-76
2023/01/20 07:11:24;;;;;;;61.00;24.20;;;;;;;-0.73;89.01;98417.54;89970;1271;24271;-75
2023/01/20 07:13:45;;;;;;;;;;;;;;;-0.71;89.19;98418.89;89823;1268;97922;-75
2023/01/20 07:16:09;;;;;;;46.30;22.90;;;;;;;-0.69;89.28;98410.59;89683;1272;22491;-72
2023/01/20 07:18:32;;;;;;;51.80;25.60;;;;;;;-0.68;89.09;98406.45;89432;1270;98970;-73
2023/01/20 07:20:44;;;;;;;;;;;;;;;;;;;;;
2023/01/20 07:23:36;;;;;;;;;;;;;;;;;;;;;
2023/01/20 07:26:18;;;;;;;56.20;28.20;;;;;;;-0.65;89.21;98411.06;89118;1278;23087;-73
2023/01/20 07:29:19;;;;;;;58.10;28.90;;;;;;;-0.64;89.16;98415.88;88593;1286;22750;-72
2023/01/20 07:31:46;;;;;;;65.80;29.90;;;;;;;-0.63;89.09;98425.70;88413;1272;99586;-72
2023/01/20 07:34:49;;;;;;;67.90;31.40;;;;;;;-0.64;89.08;98427.95;88494;1289;22590;-73
2023/01/20 07:37:39;;;;;;;;;;;;;;;;;;;;;
2023/01/20 07:40:45;;;;;;;67.80;31.80;;;;;;;-0.67;89.10;98433.00;87604;1296;22655;-72
2023/01/20 07:43:37;;;;;;;71.40;32.50;;;;;;;-0.66;89.11;98434.89;87099;1300;98952;-73
2023/01/20 07:45:51;;;;;;;78.80;31.20;;;;;;;-0.65;89.04;98433.52;87317;1301;24212;-76
2023/01/20 07:48:13;;;;;;;68.80;30.70;;;;;;;-0.67;88.97;98432.66;87170;1300;100152;-72
2023/01/20 07:51:19;;;;;;;81.40;31.50;;;;;;;-0.66;89.12;98432.14;87348;1301;23334;-74
2023/01/20 07:54:22;;;;;;;69.00;28.50;;;;;;;-0.66;89.01;98431.45;87360;1301;23149;-72
2023/01/20 07:56:29;;;;;;;73.00;29.40;;;;;;;-0.66;89.01;98428.69;86856;1313;22779;-73
2023/01/20 08:02:25;;;;;;;56.80;29.60;;;;;;;-0.65;88.99;98431.24;86363;1312;98850;-73
2023/01/20 08:04:38;;;;;;;65.80;30.50;;;;;;;-0.66;88.94;98433.67;86845;1306;22586;-74
2023/01/20 08:07:21;;;;;;;59.40;29.40;;;;;;;-0.65;89.21;98430.38;87218;1294;99077;-73
2023/01/20 08:09:42;;;;;;;70.00;31.70;;;;;;;-0.65;88.92;98439.20;87439;1298;25479;-73
2023/01/20 08:12:28;;;;;;;93.30;30.80;;;;;;;-0.66;89.12;98442.30;87780;1293;98835;-74
2023/01/20 08:15:15;;;;;;;60.00;28.00;;;;;;;-0.65;89.01;98443.86;88433;1280;22547;-75
2023/01/20 08:18:16;;;;;;;;;;;;;;;;;;;;;
2023/01/20 08:21:21;;;;;;;57.40;28.90;;;;;;;-0.65;88.92;98456.11;88529;1281;24211;-74
2023/01/20 08:24:16;;;;;;;59.60;29.00;;;;;;;-0.68;88.97;98462.50;88917;1282;22589;-74
2023/01/20 08:26:58;;;;;;;72.30;31.00;;;;;;;-0.65;89.01;98464.21;89039;1281;25307;-74
2023/01/20 08:29:55;;;;;;;;;;;;;;;;;;;;;
2023/01/20 08:32:19;;;;;;;65.60;29.00;;;;;;;-0.57;89.09;98467.58;88952;1281;99238;-74
2023/01/20 08:35:01;;;;;;;62.80;29.10;;;;;;;-0.57;89.04;98464.46;89586;1265;23023;-75
2023/01/20 08:37:11;;;;;;;78.70;28.40;;;;;;;-0.56;89.02;98457.72;89171;1271;97678;-74
2023/01/20 08:39:33;;;;;;;60.00;28.60;;;;;;;-0.58;88.92;98452.57;89251;1255;22601;-74
2023/01/20 08:41:44;;;;;;;64.80;29.80;;;;;;;-0.55;88.97;98460.81;89102;1272;25584;-74
2023/01/20 08:44:38;;;;;;;69.00;28.90;;;;;;;-0.55;88.93;98458.05;89161;1265;99021;-75
2023/01/20 08:47:50;;;;;;;68.30;29.40;;;;;;;-0.56;88.96;98469.11;89349;1275;23340;-73
2023/01/20 08:49:29;;;;;;;65.40;30.10;;;;;;;-0.54;88.96;98471.49;88998;1262;98204;-73
2023/01/20 08:51:41;;;;;;;56.90;26.70;;;;;;;-0.53;89.03;98470.98;89097;1279;22526;-73
2023/01/20 08:54:33;;;;;;;;;;;;;;;;;;;;;
2023/01/20 08:57:25;;;;;;;49.30;25.50;;;;;;;-0.52;88.94;98479.39;89052;1278;22647;-73
2023/01/20 08:59:47;;;;;;;51.30;25.00;;;;;;;-0.51;88.94;98485.44;88942;1277;22586;-73
2023/01/20 09:01:52;;;;;;;59.40;27.50;;;;;;;-0.51;89.01;98489.77;88852;1279;98323;-72
2023/01/20 09:03:56;;;;;;;73.60;31.30;;;;;;;-0.51;88.86;98488.89;89042;1278;24262;-73
2023/01/20 09:06:03;;;;;;;60.90;30.10;;;;;;;-0.49;88.98;98484.58;88780;1278;99223;-73
2023/01/20 09:08:05;;;;;;;60.50;29.50;;;;;;;-0.48;88.95;98482.32;88920;1279;22676;-72
2023/01/20 09:10:56;;;;;;;65.40;29.60;;;;;;;-0.48;88.87;98484.03;88999;1274;22567;-73
2023/01/20 09:13:30;;;;;;;;;;;;;;;;;;;;;
2023/01/20 09:16:22;;;;;;;59.40;30.80;;;;;;;-0.47;89.04;98486.77;89518;1278;24229;-73
2023/01/20 09:18:24;;;;;;;57.30;25.80;;;;;;;-0.48;89.02;98485.41;90008;1276;98944;-73
2023/01/20 09:20:37;;;;;;;60.30;29.70;;;;;;;-0.46;88.82;98487.46;89297;1280;22609;-75
2023/01/20 09:23:09;;;;;;;61.50;29.70;;;;;;;-0.45;89.00;98490.39;88912;1271;22649;-73
2023/01/20 09:25:22;;;;;;;66.90;29.80;;;;;;;-0.45;88.95;98491.77;88755;1278;99038;-74
2023/01/20 09:27:28;;;;;;;63.00;29.50;;;;;;;-0.43;88.99;98490.17;88889;1264;22594;-73
2023/01/20 09:29:36;;;;;;;67.90;32.20;;;;;;;-0.41;89.09;98491.35;88986;1278;22643;-72
2023/01/20 09:32:03;;;;;;;70.30;31.50;;;;;;;-0.43;88.93;98490.00;88808;1278;99357;-72
2023/01/20 09:34:07;;;;;;;69.50;32.40;;;;;;;-0.39;88.99;98492.38;89345;1274;24264;-73
2023/01/20 09:36:17;;;;;;;72.40;35.00;;;;;;;-0.38;88.99;98489.27;89224;1271;99580;-73
2023/01/20 09:44:17;;;;;;;64.10;30.60;;;;;;;-0.37;89.16;98482.33;89227;1272;97949;-72
2023/01/20 09:53:15;;;;;;;;;;;;;;;-0.31;89.03;98480.04;88980;1274;22570;-75
2023/01/20 09:56:05;;;;;;;54.90;27.10;;;;;;;-0.30;88.81;98479.50;88938;1280;85564;-75
2023/01/20 09:58:44;;;;;;;60.70;27.10;;;;;;;-0.30;89.06;98477.95;88932;1271;23185;-74
2023/01/20 10:00:55;;;;;;;64.30;28.50;;;;;;;-0.30;88.86;98478.13;88896;1264;99804;-74
2023/01/20 10:03:46;;;;;;;;;;;;;;;;;;;;;
2023/01/20 10:06:14;;;;;;;67.70;28.70;;;;;;;-0.29;89.05;98476.20;88965;1277;22596;-74
2023/01/20 10:09:20;;;;;;;64.80;28.20;;;;;;;-0.29;89.04;98476.55;89065;1288;24894;-75
2023/01/20 10:12:05;;;;;;;;;;;;;;;;;;;;;
2023/01/20 10:14:50;;;;;;;66.10;30.70;;;;;;;-0.28;88.90;98475.48;88916;1276;22566;-75
2023/01/20 10:17:39;;;;;;;74.50;30.10;;;;;;;-0.27;89.01;98473.42;88507;1271;23065;-73
2023/01/20 10:20:24;;;;;;;66.20;30.00;;;;;;;-0.27;89.06;98473.59;88517;1279;98700;-75
2023/01/20 10:22:46;;;;;;;69.10;31.50;;;;;;;-0.26;88.95;98475.30;88107;1279;25563;-74
2023/01/20 10:25:49;;;;;;;71.70;31.20;;;;;;;-0.24;89.06;98476.84;88267;1289;99846;-74
2023/01/20 10:28:13;;;;;;;66.60;30.60;;;;;;;-0.24;89.04;98480.80;88580;1273;23368;-73
2023/01/20 10:30:55;;;;;;;64.10;29.90;;;;;;;-0.22;89.14;98476.80;88429;1289;99676;-74
2023/01/20 10:33:29;;;;;;;72.30;32.70;;;;;;;-0.21;89.09;98479.39;89049;1275;22675;-75
2023/01/20 10:35:44;;;;;;;70.40;31.30;;;;;;;-0.20;89.11;98476.95;88782;1288;22547;-73
2023/01/20 10:37:55;;;;;;;76.80;32.50;;;;;;;-0.19;89.11;98481.77;88340;1286;98011;-74
2023/01/20 10:40:03;;;;;;;75.50;32.50;;;;;;;-0.19;88.97;98482.64;88483;1276;22659;-73
2023/01/20 10:42:16;;;;;;;75.40;31.60;;;;;;;-0.19;88.92;98480.90;88526;1286;22690;-71
2023/01/20 10:44:33;;;;;;;73.50;32.40;;;;;;;-0.20;88.97;98480.92;88942;1280;22968;-71
2023/01/20 10:47:47;;;;;;;74.20;32.60;;;;;;;-0.22;89.02;98482.34;88926;1264;23424;-71
2023/01/20 10:50:39;;;;;;;;;;;;;;;;;;;;;
2023/01/20 10:53:43;;;;;;;;;;;;;;;;;;;;;
2023/01/20 10:56:33;;;;;;;80.80;30.60;;;;;;;-0.17;88.86;98479.16;87912;1283;100894;-72
2023/01/20 10:58:48;;;;;;;65.40;30.30;;;;;;;-0.18;88.98;98477.27;88017;1292;23610;-73
2023/01/20 11:01:13;;;;;;;67.60;30.40;;;;;;;-0.20;88.99;98478.16;88200;1286;100265;-71
2023/01/20 11:03:27;;;;;;;66.40;29.70;;;;;;;-0.19;89.00;98478.66;88367;1286;22567;-72
2023/01/20 11:05:50;;;;;;;75.20;29.20;;;;;;;-0.16;88.99;98475.87;88307;1286;26212;-71
2023/01/20 11:07:57;;;;;;;62.80;29.70;;;;;;;-0.15;88.91;98472.23;88269;1285;100638;-73
2023/01/20 11:10:13;;;;;;;67.90;30.10;;;;;;;-0.14;88.99;98470.48;88478;1279;24237;-70
2023/01/20 11:12:24;;;;;;;74.30;31.20;;;;;;;-0.14;89.19;98471.53;88494;1277;22570;-72
2023/01/20 11:14:46;;;;;;;63.90;28.60;;;;;;;-0.13;89.15;98467.90;88348;1286;22542;-71
2023/01/20 11:17:04;;;;;;;77.50;31.20;;;;;;;-0.13;89.03;98457.36;88298;1286;22541;-71
2023/01/20 11:19:14;;;;;;;71.90;32.20;;;;;;;-0.15;89.05;98453.23;88312;1280;99692;-71
2023/01/20 11:21:26;;;;;;;83.60;32.60;;;;;;;-0.15;89.06;98444.61;88434;1270;25595;-72
2023/01/20 11:23:56;;;;;;;74.50;29.90;;;;;;;-0.12;89.02;98441.30;88458;1286;22558;-71
2023/01/20 11:26:00;;;;;;;73.40;30.70;;;;;;;-0.12;89.18;98442.66;88468;1286;99073;-71
2023/01/20 11:28:14;;;;;;;73.70;32.70;;;;;;;-0.12;89.12;98444.89;88865;1274;22978;-71
2023/01/20 11:30:34;;;;;;;71.40;31.70;;;;;;;-0.10;89.09;98450.92;88688;1280;22608;-71
2023/01/20 11:33:37;;;;;;;74.10;32.90;;;;;;;-0.10;89.16;98447.64;88977;1271;22609;-71
2023/01/20 11:35:55;;;;;;;73.90;29.80;;;;;;;-0.11;89.02;98439.02;89218;1272;22566;-72
2023/01/20 11:38:20;;;;;;;67.00;30.80;;;;;;;-0.12;88.91;98437.31;89081;1273;99075;-72
2023/01/20 11:40:30;;;;;;;81.10;34.30;;;;;;;-0.13;88.99;98435.44;89494;1272;22538;-70
2023/01/20 11:42:43;;;;;;;77.40;33.80;;;;;;;-0.13;89.16;98430.59;89432;1270;98481;-75
2023/01/20 11:44:53;;;;;;;65.30;30.90;;;;;;;-0.13;89.16;98419.54;89746;1271;22563;-71
2023/01/20 11:47:23;;;;;;;69.90;31.30;;;;;;;-0.11;89.20;98418.14;89156;1275;23002;-72
2023/01/20 11:49:25;;;;;;;76.00;31.30;;;;;;;-0.12;89.02;98419.34;89161;1275;99967;-71
2023/01/20 11:51:27;;;;;;;80.60;33.90;;;;;;;-0.11;89.15;98418.14;89228;1271;24160;-70
2023/01/20 11:53:35;;;;;;;79.80;33.40;;;;;;;-0.18;89.09;98408.39;89622;1273;22872;-71
2023/01/20 11:56:17;;;;;;;85.90;33.90;;;;;;;-0.13;88.99;98409.88;89340;1275;99215;-71
2023/01/20 11:58:22;;;;;;;83.00;32.90;;;;;;;-0.15;89.06;98407.83;89190;1266;22575;-71
2023/01/20 12:01:18;;;;;;;89.90;33.50;;;;;;;-0.17;89.02;98403.71;89702;1275;22671;-73
2023/01/20 12:03:52;;;;;;;78.00;32.00;;;;;;;-0.18;89.08;98401.48;89955;1265;22565;-72
2023/01/20 12:06:39;;;;;;;87.60;32.30;;;;;;;-0.20;89.05;98407.37;90449;1266;22533;-74
2023/01/20 12:09:14;;;;;;;;;;;;;;;;;;;;;
2023/01/20 12:11:40;;;;;;;85.50;34.00;;;;;;;-0.20;89.01;98400.80;90093;1274;22552;-72
2023/01/20 12:14:23;;;;;;;84.10;34.10;;;;;;;-0.19;89.07;98404.59;90100;1267;98859;-71
2023/01/20 12:16:37;;;;;;;78.10;31.50;;;;;;;-0.22;89.11;98405.15;89742;1271;22656;-72
2023/01/20 12:19:11;;;;;;;86.60;34.50;;;;;;;-0.20;89.01;98415.84;89571;1259;22522;-71
2023/01/20 12:21:18;;;;;;;85.00;32.10;;;;;;;-0.22;89.03;98416.20;89376;1270;24392;-71
2023/01/20 12:23:44;;;;;;;85.40;33.10;;;;;;;-0.21;89.17;98419.30;89346;1272;22533;-72
2023/01/20 12:26:02;;;;;;;77.80;28.60;;;;;;;-0.21;89.06;98427.60;89448;1271;99076;-72
2023/01/20 12:28:24;;;;;;;83.00;30.60;;;;;;;-0.25;89.08;98427.64;89784;1265;24741;-71
2023/01/20 12:30:45;;;;;;;89.30;32.90;;;;;;;-0.26;89.22;98423.87;89390;1270;22542;-72
2023/01/20 12:32:46;;;;;;;;;;;;;;;-0.27;88.97;98426.63;89478;1256;98708;-71
2023/01/20 12:34:47;;;;;;;87.50;31.30;;;;;;;-0.27;89.15;98429.05;89352;1271;22530;-72
2023/01/20 12:37:27;;;;;;;89.70;34.60;;;;;;;-0.27;89.13;98428.70;89276;1256;99662;-72
2023/01/20 12:40:25;;;;;;;76.00;30.30;;;;;;;-0.28;89.17;98434.92;89408;1268;22871;-76
2023/01/20 12:43:09;;;;;;;71.90;28.50;;;;;;;-0.30;89.04;98428.05;88908;1270;25522;-69
2023/01/20 12:45:53;;;;;;;76.50;30.90;;;;;;;-0.31;89.08;98428.75;88919;1278;26514;-70
2023/01/20 12:48:22;;;;;;;98.10;34.20;;;;;;;-0.31;89.22;98441.70;88886;1278;22655;-70
2023/01/20 12:50:35;;;;;;;79.10;32.00;;;;;;;-0.32;89.23;98437.40;88728;1276;100342;-70
2023/01/20 12:53:37;;;;;;;80.90;32.70;;;;;;;-0.34;89.30;98440.19;88868;1270;23909;-70
2023/01/20 12:56:33;;;;;;;;;;;;;;;;;;;;;
2023/01/20 12:59:19;;;;;;;70.50;30.50;;;;;;;-0.35;89.15;98444.17;88545;1280;22677;-70
2023/01/20 13:02:19;;;;;;;78.10;30.90;;;;;;;-0.38;89.10;98452.84;88260;1287;100444;-70
2023/01/20 13:05:13;;;;;;;77.90;31.40;;;;;;;-0.42;89.24;98454.79;88569;1285;22849;-71
2023/01/20 13:08:05;;;;;;;73.90;30.70;;;;;;;-0.45;89.16;98465.02;88377;1287;100015;-72
2023/01/20 13:10:50;;;;;;;84.40;32.60;;;;;;;-0.48;89.32;98467.64;88656;1286;23051;-72
2023/01/20 13:13:02;;;;;;;78.70;31.90;;;;;;;-0.52;89.22;98476.66;88718;1286;22591;-72
2023/01/20 13:15:54;;;;;;;92.20;33.30;;;;;;;-0.54;89.14;98481.16;89065;1265;22689;-72
2023/01/20 13:18:23;;;;;;;81.70;32.00;;;;;;;-0.55;89.17;98480.48;88525;1286;22550;-72
2023/01/20 13:20:27;;;;;;;93.20;35.30;;;;;;;-0.54;89.27;98481.33;88559;1286;98334;-72
2023/01/20 13:22:33;;;;;;;90.20;35.10;;;;;;;-0.55;89.27;98483.41;88143;1287;22617;-72
2023/01/20 13:25:03;;;;;;;93.50;33.70;;;;;;;-0.55;89.27;98481.85;88451;1271;25515;-73
2023/01/20 13:27:08;;;;;;;95.10;35.30;;;;;;;-0.56;89.27;98478.08;88739;1280;22590;-73
2023/01/20 13:29:42;;;;;;;90.10;36.70;;;;;;;-0.56;89.35;98477.39;88654;1280;23005;-73
2023/01/20 13:32:14;;;;;;;86.20;34.70;;;;;;;-0.55;89.39;98480.31;88468;1279;98971;-70
2023/01/20 13:34:25;;;;;;;82.70;34.70;;;;;;;-0.56;89.43;98477.20;88479;1278;22576;-69
2023/01/20 13:36:38;;;;;;;85.20;31.80;;;;;;;-0.55;89.54;98479.27;88602;1272;22541;-69
2023/01/20 13:38:43;;;;;;;79.00;33.30;;;;;;;-0.55;89.62;98479.97;88429;1279;99156;-69
2023/01/20 13:40:58;;;;;;;86.40;35.60;;;;;;;-0.55;89.50;98480.65;88628;1277;23342;-70
2023/01/20 13:42:59;;;;;;;82.00;33.60;;;;;;;-0.54;89.39;98477.19;88631;1278;22646;-71
2023/01/20 13:45:33;;;;;;;81.90;34.20;;;;;;;-0.56;89.47;98476.53;88665;1272;98794;-71
2023/01/20 13:48:13;;;;;;;79.40;36.00;;;;;;;-0.53;89.59;98481.16;89066;1280;22687;-69
2023/01/20 13:50:42;;;;;;;76.80;32.70;;;;;;;-0.52;89.61;98484.42;88088;1286;99036;-70
2023/01/20 13:53:29;;;;;;;73.40;33.90;;;;;;;-0.51;89.52;98483.02;88243;1286;22545;-70
2023/01/20 13:56:13;;;;;;;75.90;34.00;;;;;;;-0.48;89.79;98485.58;87942;1284;99409;-69
2023/01/20 13:58:26;;;;;;;75.20;31.40;;;;;;;-0.47;89.69;98486.45;88243;1271;22589;-70
2023/01/20 14:00:33;;;;;;;77.20;32.10;;;;;;;-0.48;89.58;98484.37;88297;1284;22572;-70
2023/01/20 14:02:38;;;;;;;79.70;35.20;;;;;;;-0.45;89.69;98487.29;88122;1270;99891;-70
2023/01/20 14:05:03;;;;;;;;;;;;;;;;;;;;;
2023/01/20 14:07:08;;;;;;;85.70;34.80;;;;;;;-0.43;89.70;98481.89;88146;1283;100093;-70
2023/01/20 14:09:40;;;;;;;;;;;;;;;;;;;;;
2023/01/20 14:11:49;;;;;;;78.10;30.70;;;;;;;-0.42;89.52;98478.77;88224;1284;24199;-72
2023/01/20 14:14:31;;;;;;;71.70;31.90;;;;;;;-0.40;89.67;98483.08;88510;1286;98989;-71
2023/01/20 14:16:32;;;;;;;71.30;31.70;;;;;;;-0.40;89.55;98476.17;88293;1277;22570;-73
2023/01/20 14:18:53;;;;;;;83.60;32.90;;;;;;;-0.39;89.76;98483.07;88363;1270;22486;-71
2023/01/20 14:20:57;;;;;;;80.50;31.10;;;;;;;-0.39;89.64;98481.68;88320;1286;99397;-72
2023/01/20 14:24:03;;;;;;;81.40;32.50;;;;;;;-0.39;89.55;98483.23;88173;1280;22545;-72
2023/01/20 14:26:26;;;;;;;82.70;30.70;;;;;;;-0.40;89.70;98480.83;88177;1284;99564;-73